Terminal Aerodrome Forecast
Issued by NWS Omaha/Valley, NE

Home | Current Version | Previous Version | Text Only | Print | Product List | Glossary On
Versions: 1 2 3 4 5 6 7 8 9 10 11 12 13 14 15 16 17 18 19
000
FTUS43 KOAX 211444 AAA
TAFOFK
TAF AMD
KOFK 211444Z 2115/2212 11006KT P6SM BKN050
      TEMPO 2115/2117 BKN015
     FM211700 17014G24KT P6SM SKC
     FM220000 16014KT P6SM FEW250
     FM220400 17015G23KT P6SM FEW250 WS020/20045KT=

USA.gov is the U.S. government's official web portal to all federal, state and local government web resources and services.